sensor_id;sensor_type;location;lat;lon;timestamp;temperature;humidity
22714;DHT22;11524;50.846;4.326;2023-02-24T00:02:13;17.80;67.00
22714;DHT22;11524;50.846;4.326;2023-02-24T00:04:39;17.80;67.60
22714;DHT22;11524;50.846;4.326;2023-02-24T00:07:09;17.80;67.60
22714;DHT22;11524;50.846;4.326;2023-02-24T00:09:35;17.80;67.00
22714;DHT22;11524;50.846;4.326;2023-02-24T00:12:05;17.80;67.70
22714;DHT22;11524;50.846;4.326;2023-02-24T00:14:34;17.80;66.80
22714;DHT22;11524;50.846;4.326;2023-02-24T00:17:00;17.80;67.30
22714;DHT22;11524;50.846;4.326;2023-02-24T00:19:28;17.80;67.20
22714;DHT22;11524;50.846;4.326;2023-02-24T00:21:54;17.80;67.10
22714;DHT22;11524;50.846;4.326;2023-02-24T00:24:20;17.80;68.30
22714;DHT22;11524;50.846;4.326;2023-02-24T00:26:51;17.80;67.30
22714;DHT22;11524;50.846;4.326;2023-02-24T00:29:18;17.80;66.60
22714;DHT22;11524;50.846;4.326;2023-02-24T00:31:45;17.80;67.10
22714;DHT22;11524;50.846;4.326;2023-02-24T00:34:11;17.80;66.20
22714;DHT22;11524;50.846;4.326;2023-02-24T00:36:37;17.80;66.70
22714;DHT22;11524;50.846;4.326;2023-02-24T00:39:05;17.70;67.30
22714;DHT22;11524;50.846;4.326;2023-02-24T00:41:42;17.70;67.20
22714;DHT22;11524;50.846;4.326;2023-02-24T00:44:10;17.70;66.80
22714;DHT22;11524;50.846;4.326;2023-02-24T00:46:44;17.70;67.30
22714;DHT22;11524;50.846;4.326;2023-02-24T00:49:16;17.70;67.20
22714;DHT22;11524;50.846;4.326;2023-02-24T00:51:44;17.70;67.90
22714;DHT22;11524;50.846;4.326;2023-02-24T00:54:10;17.70;67.60
22714;DHT22;11524;50.846;4.326;2023-02-24T00:56:41;17.70;68.40
22714;DHT22;11524;50.846;4.326;2023-02-24T00:59:08;17.70;67.90
22714;DHT22;11524;50.846;4.326;2023-02-24T01:01:34;17.70;67.10
22714;DHT22;11524;50.846;4.326;2023-02-24T01:04:02;17.70;67.90
22714;DHT22;11524;50.846;4.326;2023-02-24T01:06:37;17.70;68.20
22714;DHT22;11524;50.846;4.326;2023-02-24T01:09:03;17.70;69.00
22714;DHT22;11524;50.846;4.326;2023-02-24T01:11:34;17.70;68.00
22714;DHT22;11524;50.846;4.326;2023-02-24T01:14:20;17.70;68.10
22714;DHT22;11524;50.846;4.326;2023-02-24T01:16:46;17.70;68.70
22714;DHT22;11524;50.846;4.326;2023-02-24T01:19:18;17.70;68.80
22714;DHT22;11524;50.846;4.326;2023-02-24T01:21:45;17.70;68.20
22714;DHT22;11524;50.846;4.326;2023-02-24T01:24:14;17.70;69.20
22714;DHT22;11524;50.846;4.326;2023-02-24T01:26:43;17.70;68.40
22714;DHT22;11524;50.846;4.326;2023-02-24T01:29:08;17.70;68.10
22714;DHT22;11524;50.846;4.326;2023-02-24T01:31:36;17.70;68.70
22714;DHT22;11524;50.846;4.326;2023-02-24T01:34:03;17.70;67.90
22714;DHT22;11524;50.846;4.326;2023-02-24T01:36:32;17.70;68.40
22714;DHT22;11524;50.846;4.326;2023-02-24T01:38:58;17.70;68.10
22714;DHT22;11524;50.846;4.326;2023-02-24T01:41:25;17.70;68.60
22714;DHT22;11524;50.846;4.326;2023-02-24T01:44:02;17.70;68.10
22714;DHT22;11524;50.846;4.326;2023-02-24T01:46:32;17.60;68.10
22714;DHT22;11524;50.846;4.326;2023-02-24T01:51:56;17.60;68.70
22714;DHT22;11524;50.846;4.326;2023-02-24T01:54:27;17.60;68.00
22714;DHT22;11524;50.846;4.326;2023-02-24T01:56:55;17.60;68.40
22714;DHT22;11524;50.846;4.326;2023-02-24T01:59:23;17.60;68.50
22714;DHT22;11524;50.846;4.326;2023-02-24T02:01:52;17.60;67.50
22714;DHT22;11524;50.846;4.326;2023-02-24T02:04:29;17.60;63.40
22714;DHT22;11524;50.846;4.326;2023-02-24T02:06:57;17.60;63.00
22714;DHT22;11524;50.846;4.326;2023-02-24T02:09:23;17.50;63.30
22714;DHT22;11524;50.846;4.326;2023-02-24T02:11:50;17.50;63.40
22714;DHT22;11524;50.846;4.326;2023-02-24T02:14:17;17.50;63.50
22714;DHT22;11524;50.846;4.326;2023-02-24T02:31:57;17.40;63.20
22714;DHT22;11524;50.846;4.326;2023-02-24T02:37:52;17.30;61.60
22714;DHT22;11524;50.846;4.326;2023-02-24T02:42:58;17.30;62.10
22714;DHT22;11524;50.846;4.326;2023-02-24T02:48:04;17.30;61.90
22714;DHT22;11524;50.846;4.326;2023-02-24T02:53:14;17.30;61.60
22714;DHT22;11524;50.846;4.326;2023-02-24T02:58:32;17.30;61.20
22714;DHT22;11524;50.846;4.326;2023-02-24T03:01:00;17.40;61.90
22714;DHT22;11524;50.846;4.326;2023-02-24T03:03:33;17.30;61.70
22714;DHT22;11524;50.846;4.326;2023-02-24T03:06:22;17.30;61.80
22714;DHT22;11524;50.846;4.326;2023-02-24T03:09:15;17.30;60.20
22714;DHT22;11524;50.846;4.326;2023-02-24T03:11:53;17.30;61.10
22714;DHT22;11524;50.846;4.326;2023-02-24T03:14:25;17.30;61.20
22714;DHT22;11524;50.846;4.326;2023-02-24T03:16:54;17.30;61.10
22714;DHT22;11524;50.846;4.326;2023-02-24T03:19:27;17.20;61.40
22714;DHT22;11524;50.846;4.326;2023-02-24T03:22:21;17.20;60.80
22714;DHT22;11524;50.846;4.326;2023-02-24T03:24:49;17.20;59.90
22714;DHT22;11524;50.846;4.326;2023-02-24T03:27:38;17.20;61.10
22714;DHT22;11524;50.846;4.326;2023-02-24T03:30:17;17.20;60.00
22714;DHT22;11524;50.846;4.326;2023-02-24T03:32:50;17.20;60.70
22714;DHT22;11524;50.846;4.326;2023-02-24T03:35:26;17.20;61.00
22714;DHT22;11524;50.846;4.326;2023-02-24T03:37:54;17.20;60.90
22714;DHT22;11524;50.846;4.326;2023-02-24T03:40:22;17.20;61.20
22714;DHT22;11524;50.846;4.326;2023-02-24T03:43:01;17.10;61.40
22714;DHT22;11524;50.846;4.326;2023-02-24T03:45:33;17.10;60.50
22714;DHT22;11524;50.846;4.326;2023-02-24T03:48:00;17.20;61.50
22714;DHT22;11524;50.846;4.326;2023-02-24T03:50:28;17.20;61.70
22714;DHT22;11524;50.846;4.326;2023-02-24T03:58:20;17.20;59.90
22714;DHT22;11524;50.846;4.326;2023-02-24T04:00:57;17.10;60.50
22714;DHT22;11524;50.846;4.326;2023-02-24T04:06:24;17.10;61.00
22714;DHT22;11524;50.846;4.326;2023-02-24T04:11:35;17.10;60.40
22714;DHT22;11524;50.846;4.326;2023-02-24T04:14:09;17.10;60.30
22714;DHT22;11524;50.846;4.326;2023-02-24T04:16:43;17.10;60.00
22714;DHT22;11524;50.846;4.326;2023-02-24T04:19:16;17.10;60.60
22714;DHT22;11524;50.846;4.326;2023-02-24T04:21:43;17.10;60.30
22714;DHT22;11524;50.846;4.326;2023-02-24T04:24:11;17.10;60.30
22714;DHT22;11524;50.846;4.326;2023-02-24T04:26:43;17.10;59.90
22714;DHT22;11524;50.846;4.326;2023-02-24T04:29:12;17.10;59.80
22714;DHT22;11524;50.846;4.326;2023-02-24T04:31:57;17.10;59.90
22714;DHT22;11524;50.846;4.326;2023-02-24T04:34:25;17.10;59.90
22714;DHT22;11524;50.846;4.326;2023-02-24T04:36:53;17.10;60.00
22714;DHT22;11524;50.846;4.326;2023-02-24T04:39:20;17.10;60.00
22714;DHT22;11524;50.846;4.326;2023-02-24T04:41:48;17.10;60.00
22714;DHT22;11524;50.846;4.326;2023-02-24T04:44:18;17.00;59.90
22714;DHT22;11524;50.846;4.326;2023-02-24T04:46:44;17.10;59.90
22714;DHT22;11524;50.846;4.326;2023-02-24T04:49:11;17.10;59.80
22714;DHT22;11524;50.846;4.326;2023-02-24T04:51:38;17.10;60.00
22714;DHT22;11524;50.846;4.326;2023-02-24T04:54:11;17.10;60.00
22714;DHT22;11524;50.846;4.326;2023-02-24T04:56:40;17.10;59.90
22714;DHT22;11524;50.846;4.326;2023-02-24T04:59:06;17.00;59.70
22714;DHT22;11524;50.846;4.326;2023-02-24T05:01:35;17.10;60.20
22714;DHT22;11524;50.846;4.326;2023-02-24T05:04:04;17.00;60.00
22714;DHT22;11524;50.846;4.326;2023-02-24T05:06:30;17.00;60.00
22714;DHT22;11524;50.846;4.326;2023-02-24T05:08:56;17.00;60.00
22714;DHT22;11524;50.846;4.326;2023-02-24T05:11:21;17.00;60.10
22714;DHT22;11524;50.846;4.326;2023-02-24T05:13:47;17.00;59.90
22714;DHT22;11524;50.846;4.326;2023-02-24T05:16:16;17.00;59.90
22714;DHT22;11524;50.846;4.326;2023-02-24T05:18:43;17.00;60.00
22714;DHT22;11524;50.846;4.326;2023-02-24T05:21:14;17.00;59.90
22714;DHT22;11524;50.846;4.326;2023-02-24T05:24:02;17.00;59.80
22714;DHT22;11524;50.846;4.326;2023-02-24T05:26:32;17.00;60.00
22714;DHT22;11524;50.846;4.326;2023-02-24T05:29:00;17.00;59.90
22714;DHT22;11524;50.846;4.326;2023-02-24T05:31:28;17.00;60.00
22714;DHT22;11524;50.846;4.326;2023-02-24T05:33:59;17.00;60.80
22714;DHT22;11524;50.846;4.326;2023-02-24T05:36:28;17.00;59.80
22714;DHT22;11524;50.846;4.326;2023-02-24T05:38:55;17.00;59.80
22714;DHT22;11524;50.846;4.326;2023-02-24T05:41:28;17.00;59.70
22714;DHT22;11524;50.846;4.326;2023-02-24T05:44:02;17.00;60.00
22714;DHT22;11524;50.846;4.326;2023-02-24T05:46:34;17.00;59.60
22714;DHT22;11524;50.846;4.326;2023-02-24T05:49:04;17.00;59.60
22714;DHT22;11524;50.846;4.326;2023-02-24T05:51:39;17.00;59.60
22714;DHT22;11524;50.846;4.326;2023-02-24T05:54:12;17.00;59.60
22714;DHT22;11524;50.846;4.326;2023-02-24T05:56:39;17.00;59.50
22714;DHT22;11524;50.846;4.326;2023-02-24T05:59:09;17.00;59.60
22714;DHT22;11524;50.846;4.326;2023-02-24T06:01:38;17.00;59.70
22714;DHT22;11524;50.846;4.326;2023-02-24T06:04:07;17.00;59.40
22714;DHT22;11524;50.846;4.326;2023-02-24T06:06:40;17.00;59.70
22714;DHT22;11524;50.846;4.326;2023-02-24T06:09:08;16.90;59.20
22714;DHT22;11524;50.846;4.326;2023-02-24T06:11:41;16.90;59.80
22714;DHT22;11524;50.846;4.326;2023-02-24T06:14:08;16.90;59.40
22714;DHT22;11524;50.846;4.326;2023-02-24T06:16:35;16.90;59.60
22714;DHT22;11524;50.846;4.326;2023-02-24T06:19:03;16.90;59.90
22714;DHT22;11524;50.846;4.326;2023-02-24T06:21:29;17.00;59.70
22714;DHT22;11524;50.846;4.326;2023-02-24T06:23:56;16.90;59.40
22714;DHT22;11524;50.846;4.326;2023-02-24T06:26:23;17.00;59.40
22714;DHT22;11524;50.846;4.326;2023-02-24T06:28:51;16.90;59.60
22714;DHT22;11524;50.846;4.326;2023-02-24T06:31:19;16.90;59.80
22714;DHT22;11524;50.846;4.326;2023-02-24T06:33:45;16.90;60.00
22714;DHT22;11524;50.846;4.326;2023-02-24T06:36:11;16.90;59.10
22714;DHT22;11524;50.846;4.326;2023-02-24T06:38:39;16.60;58.60
22714;DHT22;11524;50.846;4.326;2023-02-24T06:41:05;16.10;57.80
22714;DHT22;11524;50.846;4.326;2023-02-24T06:43:40;15.70;57.90
22714;DHT22;11524;50.846;4.326;2023-02-24T06:46:08;15.40;56.90
22714;DHT22;11524;50.846;4.326;2023-02-24T06:48:34;15.40;56.50
22714;DHT22;11524;50.846;4.326;2023-02-24T06:51:05;15.30;56.10
22714;DHT22;11524;50.846;4.326;2023-02-24T06:53:32;15.50;57.90
22714;DHT22;11524;50.846;4.326;2023-02-24T06:56:11;15.70;57.90
22714;DHT22;11524;50.846;4.326;2023-02-24T06:58:51;16.10;57.60
22714;DHT22;11524;50.846;4.326;2023-02-24T07:01:22;16.40;57.20
22714;DHT22;11524;50.846;4.326;2023-02-24T07:03:54;16.50;56.40
22714;DHT22;11524;50.846;4.326;2023-02-24T07:06:30;16.80;54.80
22714;DHT22;11524;50.846;4.326;2023-02-24T07:09:00;16.90;54.70
22714;DHT22;11524;50.846;4.326;2023-02-24T07:11:27;17.10;54.40
22714;DHT22;11524;50.846;4.326;2023-02-24T07:13:53;17.20;54.00
22714;DHT22;11524;50.846;4.326;2023-02-24T07:16:21;17.40;53.90
22714;DHT22;11524;50.846;4.326;2023-02-24T07:18:55;17.50;53.20
22714;DHT22;11524;50.846;4.326;2023-02-24T07:21:23;17.50;53.30
22714;DHT22;11524;50.846;4.326;2023-02-24T07:23:49;17.60;53.60
22714;DHT22;11524;50.846;4.326;2023-02-24T07:26:22;17.70;52.80
22714;DHT22;11524;50.846;4.326;2023-02-24T07:28:49;17.70;52.60
22714;DHT22;11524;50.846;4.326;2023-02-24T07:31:18;17.80;52.40
22714;DHT22;11524;50.846;4.326;2023-02-24T07:33:45;17.90;52.70
22714;DHT22;11524;50.846;4.326;2023-02-24T07:36:15;17.90;52.40
22714;DHT22;11524;50.846;4.326;2023-02-24T07:38:44;17.90;52.20
22714;DHT22;11524;50.846;4.326;2023-02-24T07:41:12;18.00;52.00
22714;DHT22;11524;50.846;4.326;2023-02-24T07:43:40;18.00;52.20
22714;DHT22;11524;50.846;4.326;2023-02-24T07:46:08;18.00;51.70
22714;DHT22;11524;50.846;4.326;2023-02-24T07:48:34;18.10;51.90
22714;DHT22;11524;50.846;4.326;2023-02-24T07:51:11;18.10;51.70
22714;DHT22;11524;50.846;4.326;2023-02-24T07:53:37;18.10;51.40
22714;DHT22;11524;50.846;4.326;2023-02-24T07:56:10;18.20;51.40
22714;DHT22;11524;50.846;4.326;2023-02-24T07:58:39;18.30;51.60
22714;DHT22;11524;50.846;4.326;2023-02-24T08:01:07;18.20;51.40
22714;DHT22;11524;50.846;4.326;2023-02-24T08:03:34;18.20;51.80
22714;DHT22;11524;50.846;4.326;2023-02-24T08:06:02;18.20;51.30
22714;DHT22;11524;50.846;4.326;2023-02-24T08:08:43;18.30;51.20
22714;DHT22;11524;50.846;4.326;2023-02-24T08:11:26;18.30;51.40
22714;DHT22;11524;50.846;4.326;2023-02-24T08:13:58;18.30;51.50
22714;DHT22;11524;50.846;4.326;2023-02-24T08:16:29;18.30;51.30
22714;DHT22;11524;50.846;4.326;2023-02-24T08:19:14;18.30;51.10
22714;DHT22;11524;50.846;4.326;2023-02-24T08:21:48;18.30;51.10
22714;DHT22;11524;50.846;4.326;2023-02-24T08:24:19;18.40;51.10
22714;DHT22;11524;50.846;4.326;2023-02-24T08:26:50;18.30;51.00
22714;DHT22;11524;50.846;4.326;2023-02-24T08:29:34;18.40;51.20
22714;DHT22;11524;50.846;4.326;2023-02-24T08:37:47;18.40;51.30
22714;DHT22;11524;50.846;4.326;2023-02-24T08:43:14;18.40;51.30
22714;DHT22;11524;50.846;4.326;2023-02-24T08:45:56;18.40;50.90
22714;DHT22;11524;50.846;4.326;2023-02-24T08:48:26;18.40;51.00
22714;DHT22;11524;50.846;4.326;2023-02-24T08:51:13;18.40;51.00
22714;DHT22;11524;50.846;4.326;2023-02-24T08:53:41;18.40;50.80
22714;DHT22;11524;50.846;4.326;2023-02-24T08:56:09;18.40;50.80
22714;DHT22;11524;50.846;4.326;2023-02-24T08:58:44;18.40;50.80
22714;DHT22;11524;50.846;4.326;2023-02-24T09:01:15;18.40;52.30
22714;DHT22;11524;50.846;4.326;2023-02-24T09:03:49;18.20;52.50
22714;DHT22;11524;50.846;4.326;2023-02-24T09:06:18;18.00;53.00
22714;DHT22;11524;50.846;4.326;2023-02-24T09:08:54;17.90;53.60
22714;DHT22;11524;50.846;4.326;2023-02-24T09:11:40;17.80;53.40
22714;DHT22;11524;50.846;4.326;2023-02-24T09:14:18;17.70;54.10
22714;DHT22;11524;50.846;4.326;2023-02-24T09:16:49;17.70;53.90
22714;DHT22;11524;50.846;4.326;2023-02-24T09:19:44;17.70;54.10
22714;DHT22;11524;50.846;4.326;2023-02-24T09:22:23;17.70;54.20
22714;DHT22;11524;50.846;4.326;2023-02-24T09:25:12;17.60;54.00
22714;DHT22;11524;50.846;4.326;2023-02-24T09:27:53;17.60;54.20
22714;DHT22;11524;50.846;4.326;2023-02-24T09:30:27;17.60;54.30
22714;DHT22;11524;50.846;4.326;2023-02-24T09:33:14;17.50;54.40
22714;DHT22;11524;50.846;4.326;2023-02-24T09:35:59;17.70;54.60
22714;DHT22;11524;50.846;4.326;2023-02-24T09:38:38;17.50;54.50
22714;DHT22;11524;50.846;4.326;2023-02-24T09:41:43;17.60;54.60
22714;DHT22;11524;50.846;4.326;2023-02-24T09:44:48;17.70;54.50
22714;DHT22;11524;50.846;4.326;2023-02-24T09:47:24;17.70;54.40
22714;DHT22;11524;50.846;4.326;2023-02-24T09:52:56;17.60;54.60
22714;DHT22;11524;50.846;4.326;2023-02-24T09:58:56;17.70;55.10
22714;DHT22;11524;50.846;4.326;2023-02-24T10:01:39;17.70;55.50
22714;DHT22;11524;50.846;4.326;2023-02-24T10:07:02;17.80;56.60
22714;DHT22;11524;50.846;4.326;2023-02-24T10:09:38;17.80;56.70
22714;DHT22;11524;50.846;4.326;2023-02-24T10:17:53;17.70;56.30
22714;DHT22;11524;50.846;4.326;2023-02-24T10:20:21;17.70;55.90
22714;DHT22;11524;50.846;4.326;2023-02-24T10:23:06;17.70;56.10
22714;DHT22;11524;50.846;4.326;2023-02-24T10:28:18;17.70;55.80
22714;DHT22;11524;50.846;4.326;2023-02-24T10:30:54;17.70;55.60
22714;DHT22;11524;50.846;4.326;2023-02-24T10:33:34;17.70;55.60
22714;DHT22;11524;50.846;4.326;2023-02-24T10:36:23;17.70;55.00
22714;DHT22;11524;50.846;4.326;2023-02-24T10:39:07;17.70;55.10
22714;DHT22;11524;50.846;4.326;2023-02-24T10:41:49;17.70;55.30
22714;DHT22;11524;50.846;4.326;2023-02-24T10:44:23;17.70;55.00
22714;DHT22;11524;50.846;4.326;2023-02-24T10:47:03;17.70;55.40
22714;DHT22;11524;50.846;4.326;2023-02-24T10:52:11;17.70;54.90
22714;DHT22;11524;50.846;4.326;2023-02-24T10:54:58;17.70;54.90
22714;DHT22;11524;50.846;4.326;2023-02-24T10:57:40;17.70;55.00
22714;DHT22;11524;50.846;4.326;2023-02-24T11:00:19;17.70;55.10
22714;DHT22;11524;50.846;4.326;2023-02-24T11:02:57;17.70;54.80
22714;DHT22;11524;50.846;4.326;2023-02-24T11:05:37;17.70;54.90
22714;DHT22;11524;50.846;4.326;2023-02-24T11:08:08;17.80;54.90
22714;DHT22;11524;50.846;4.326;2023-02-24T11:10:40;17.70;54.60
22714;DHT22;11524;50.846;4.326;2023-02-24T11:13:23;17.70;54.30
22714;DHT22;11524;50.846;4.326;2023-02-24T11:16:08;17.80;54.70
22714;DHT22;11524;50.846;4.326;2023-02-24T11:18:54;17.80;54.30
22714;DHT22;11524;50.846;4.326;2023-02-24T11:21:23;17.80;54.30
22714;DHT22;11524;50.846;4.326;2023-02-24T11:23:52;17.80;54.60
22714;DHT22;11524;50.846;4.326;2023-02-24T11:26:35;17.80;54.90
22714;DHT22;11524;50.846;4.326;2023-02-24T11:32:26;17.90;54.20
22714;DHT22;11524;50.846;4.326;2023-02-24T11:35:09;17.90;53.90
22714;DHT22;11524;50.846;4.326;2023-02-24T11:37:45;17.90;54.20
22714;DHT22;11524;50.846;4.326;2023-02-24T11:40:19;17.90;54.50
22714;DHT22;11524;50.846;4.326;2023-02-24T11:42:53;17.90;54.40
22714;DHT22;11524;50.846;4.326;2023-02-24T11:45:39;17.90;54.40
22714;DHT22;11524;50.846;4.326;2023-02-24T11:48:23;17.90;54.30
22714;DHT22;11524;50.846;4.326;2023-02-24T11:53:27;17.90;54.50
22714;DHT22;11524;50.846;4.326;2023-02-24T11:56:05;17.90;54.50
22714;DHT22;11524;50.846;4.326;2023-02-24T11:58:47;17.90;54.00
22714;DHT22;11524;50.846;4.326;2023-02-24T12:01:40;17.90;54.20
22714;DHT22;11524;50.846;4.326;2023-02-24T12:04:27;18.00;53.90
22714;DHT22;11524;50.846;4.326;2023-02-24T12:09:31;18.00;54.20
22714;DHT22;11524;50.846;4.326;2023-02-24T12:12:19;18.00;54.00
22714;DHT22;11524;50.846;4.326;2023-02-24T12:14:51;18.00;54.00
22714;DHT22;11524;50.846;4.326;2023-02-24T12:20:20;18.00;53.70
22714;DHT22;11524;50.846;4.326;2023-02-24T12:22:50;18.00;53.70
22714;DHT22;11524;50.846;4.326;2023-02-24T12:25:24;18.00;54.10
22714;DHT22;11524;50.846;4.326;2023-02-24T12:39:21;18.00;53.90
22714;DHT22;11524;50.846;4.326;2023-02-24T12:47:26;18.00;53.50
22714;DHT22;11524;50.846;4.326;2023-02-24T12:58:24;18.00;53.30
22714;DHT22;11524;50.846;4.326;2023-02-24T13:01:10;18.00;53.80
22714;DHT22;11524;50.846;4.326;2023-02-24T13:06:46;18.10;53.70
22714;DHT22;11524;50.846;4.326;2023-02-24T13:09:39;18.00;53.40
22714;DHT22;11524;50.846;4.326;2023-02-24T13:12:39;18.10;53.20
22714;DHT22;11524;50.846;4.326;2023-02-24T13:15:20;18.10;53.20
22714;DHT22;11524;50.846;4.326;2023-02-24T13:17:48;18.10;53.20
22714;DHT22;11524;50.846;4.326;2023-02-24T13:20:35;18.10;53.10
22714;DHT22;11524;50.846;4.326;2023-02-24T13:23:03;18.10;53.30
22714;DHT22;11524;50.846;4.326;2023-02-24T13:25:35;18.10;53.70
22714;DHT22;11524;50.846;4.326;2023-02-24T13:28:18;18.10;53.50
22714;DHT22;11524;50.846;4.326;2023-02-24T13:30:45;18.10;53.20
22714;DHT22;11524;50.846;4.326;2023-02-24T13:35:49;18.00;53.40
22714;DHT22;11524;50.846;4.326;2023-02-24T13:43:59;18.10;53.10
22714;DHT22;11524;50.846;4.326;2023-02-24T13:46:29;18.10;53.40
22714;DHT22;11524;50.846;4.326;2023-02-24T13:49:20;18.10;53.10
22714;DHT22;11524;50.846;4.326;2023-02-24T13:52:00;18.10;53.20
22714;DHT22;11524;50.846;4.326;2023-02-24T14:02:44;18.10;53.30
22714;DHT22;11524;50.846;4.326;2023-02-24T14:05:21;18.10;53.50
22714;DHT22;11524;50.846;4.326;2023-02-24T14:07:49;18.10;53.40
22714;DHT22;11524;50.846;4.326;2023-02-24T14:10:19;18.10;53.40
22714;DHT22;11524;50.846;4.326;2023-02-24T14:12:46;18.10;53.60
22714;DHT22;11524;50.846;4.326;2023-02-24T14:15:24;18.10;53.80
22714;DHT22;11524;50.846;4.326;2023-02-24T14:18:01;18.10;53.40
22714;DHT22;11524;50.846;4.326;2023-02-24T14:20:31;18.10;53.60
22714;DHT22;11524;50.846;4.326;2023-02-24T14:22:58;18.10;53.70
22714;DHT22;11524;50.846;4.326;2023-02-24T14:25:27;18.00;53.70
22714;DHT22;11524;50.846;4.326;2023-02-24T14:27:55;18.00;53.80
22714;DHT22;11524;50.846;4.326;2023-02-24T14:30:33;18.00;53.60
22714;DHT22;11524;50.846;4.326;2023-02-24T14:32:59;18.00;53.70
22714;DHT22;11524;50.846;4.326;2023-02-24T14:35:32;18.10;53.90
22714;DHT22;11524;50.846;4.326;2023-02-24T14:37:58;18.00;53.80
22714;DHT22;11524;50.846;4.326;2023-02-24T14:40:24;18.10;54.00
22714;DHT22;11524;50.846;4.326;2023-02-24T14:42:51;18.10;54.20
22714;DHT22;11524;50.846;4.326;2023-02-24T14:45:22;18.10;54.20
22714;DHT22;11524;50.846;4.326;2023-02-24T14:47:51;18.10;54.10
22714;DHT22;11524;50.846;4.326;2023-02-24T14:50:20;18.10;54.40
22714;DHT22;11524;50.846;4.326;2023-02-24T14:52:50;18.10;54.40
22714;DHT22;11524;50.846;4.326;2023-02-24T14:55:30;18.10;54.30
22714;DHT22;11524;50.846;4.326;2023-02-24T15:00:59;18.00;54.40
22714;DHT22;11524;50.846;4.326;2023-02-24T15:03:42;18.00;54.50
22714;DHT22;11524;50.846;4.326;2023-02-24T15:06:21;18.00;54.50
22714;DHT22;11524;50.846;4.326;2023-02-24T15:08:55;18.00;54.50
22714;DHT22;11524;50.846;4.326;2023-02-24T15:11:25;18.10;54.60
22714;DHT22;11524;50.846;4.326;2023-02-24T15:14:04;18.00;54.70
22714;DHT22;11524;50.846;4.326;2023-02-24T15:16:40;18.00;54.70
22714;DHT22;11524;50.846;4.326;2023-02-24T15:19:31;18.00;54.80
22714;DHT22;11524;50.846;4.326;2023-02-24T15:21:56;18.00;54.90
22714;DHT22;11524;50.846;4.326;2023-02-24T15:24:31;18.00;54.90
22714;DHT22;11524;50.846;4.326;2023-02-24T15:27:17;18.00;54.90
22714;DHT22;11524;50.846;4.326;2023-02-24T15:29:53;18.00;55.00
22714;DHT22;11524;50.846;4.326;2023-02-24T15:32:24;17.90;55.00
22714;DHT22;11524;50.846;4.326;2023-02-24T15:34:50;18.00;54.90
22714;DHT22;11524;50.846;4.326;2023-02-24T15:37:29;18.00;54.90
22714;DHT22;11524;50.846;4.326;2023-02-24T15:40:05;18.00;54.90
22714;DHT22;11524;50.846;4.326;2023-02-24T15:42:33;18.00;55.00
22714;DHT22;11524;50.846;4.326;2023-02-24T15:45:04;17.90;55.50
22714;DHT22;11524;50.846;4.326;2023-02-24T15:47:43;18.00;55.50
22714;DHT22;11524;50.846;4.326;2023-02-24T15:50:10;17.90;55.60
22714;DHT22;11524;50.846;4.326;2023-02-24T15:52:36;17.90;55.40
22714;DHT22;11524;50.846;4.326;2023-02-24T15:55:03;17.90;55.50
22714;DHT22;11524;50.846;4.326;2023-02-24T15:57:31;17.90;55.40
22714;DHT22;11524;50.846;4.326;2023-02-24T15:59:57;17.90;56.00
22714;DHT22;11524;50.846;4.326;2023-02-24T16:02:23;17.90;55.50
22714;DHT22;11524;50.846;4.326;2023-02-24T16:04:50;17.90;55.50
22714;DHT22;11524;50.846;4.326;2023-02-24T16:07:19;17.90;55.60
22714;DHT22;11524;50.846;4.326;2023-02-24T16:09:46;18.00;55.70
22714;DHT22;11524;50.846;4.326;2023-02-24T16:12:20;18.00;55.70
22714;DHT22;11524;50.846;4.326;2023-02-24T16:14:48;17.90;56.10
22714;DHT22;11524;50.846;4.326;2023-02-24T16:17:35;17.90;55.80
22714;DHT22;11524;50.846;4.326;2023-02-24T16:20:02;18.00;55.80
22714;DHT22;11524;50.846;4.326;2023-02-24T16:22:32;18.00;55.80
22714;DHT22;11524;50.846;4.326;2023-02-24T16:24:58;18.00;56.30
22714;DHT22;11524;50.846;4.326;2023-02-24T16:27:24;18.00;56.00
22714;DHT22;11524;50.846;4.326;2023-02-24T16:29:51;18.00;56.00
22714;DHT22;11524;50.846;4.326;2023-02-24T16:32:17;17.90;55.90
22714;DHT22;11524;50.846;4.326;2023-02-24T16:34:46;18.00;56.00
22714;DHT22;11524;50.846;4.326;2023-02-24T16:37:25;17.90;56.10
22714;DHT22;11524;50.846;4.326;2023-02-24T16:39:51;17.90;56.00
22714;DHT22;11524;50.846;4.326;2023-02-24T16:42:17;17.90;55.90
22714;DHT22;11524;50.846;4.326;2023-02-24T16:44:44;17.90;55.90
22714;DHT22;11524;50.846;4.326;2023-02-24T16:47:18;17.90;56.00
22714;DHT22;11524;50.846;4.326;2023-02-24T16:49:45;18.00;55.90
22714;DHT22;11524;50.846;4.326;2023-02-24T16:52:11;17.90;55.90
22714;DHT22;11524;50.846;4.326;2023-02-24T16:54:37;17.90;55.90
22714;DHT22;11524;50.846;4.326;2023-02-24T16:57:03;17.90;56.00
22714;DHT22;11524;50.846;4.326;2023-02-24T16:59:28;17.90;55.80
22714;DHT22;11524;50.846;4.326;2023-02-24T17:01:55;17.90;55.80
22714;DHT22;11524;50.846;4.326;2023-02-24T17:04:22;17.90;56.00
22714;DHT22;11524;50.846;4.326;2023-02-24T17:06:49;17.90;55.80
22714;DHT22;11524;50.846;4.326;2023-02-24T17:09:15;17.90;55.80
22714;DHT22;11524;50.846;4.326;2023-02-24T17:11:42;17.90;55.90
22714;DHT22;11524;50.846;4.326;2023-02-24T17:14:18;17.90;56.00
22714;DHT22;11524;50.846;4.326;2023-02-24T17:16:45;17.90;55.90
22714;DHT22;11524;50.846;4.326;2023-02-24T17:19:11;17.90;55.90
22714;DHT22;11524;50.846;4.326;2023-02-24T17:21:40;17.90;55.80
22714;DHT22;11524;50.846;4.326;2023-02-24T17:24:08;17.90;55.80
22714;DHT22;11524;50.846;4.326;2023-02-24T17:26:37;17.90;55.80
22714;DHT22;11524;50.846;4.326;2023-02-24T17:29:03;18.00;55.80
22714;DHT22;11524;50.846;4.326;2023-02-24T17:31:28;17.90;55.70
22714;DHT22;11524;50.846;4.326;2023-02-24T17:33:55;17.90;55.70
22714;DHT22;11524;50.846;4.326;2023-02-24T17:36:21;17.90;55.90
22714;DHT22;11524;50.846;4.326;2023-02-24T17:38:47;17.90;55.80
22714;DHT22;11524;50.846;4.326;2023-02-24T17:41:12;17.90;55.80
22714;DHT22;11524;50.846;4.326;2023-02-24T17:43:38;17.90;55.90
22714;DHT22;11524;50.846;4.326;2023-02-24T17:46:04;17.90;55.70
22714;DHT22;11524;50.846;4.326;2023-02-24T17:48:29;17.90;56.00
22714;DHT22;11524;50.846;4.326;2023-02-24T17:50:56;17.80;55.80
22714;DHT22;11524;50.846;4.326;2023-02-24T17:53:22;17.90;55.80
22714;DHT22;11524;50.846;4.326;2023-02-24T17:55:48;17.90;55.80
22714;DHT22;11524;50.846;4.326;2023-02-24T17:58:14;17.80;55.70
22714;DHT22;11524;50.846;4.326;2023-02-24T18:00:39;17.90;56.00
22714;DHT22;11524;50.846;4.326;2023-02-24T18:03:05;17.80;55.90
22714;DHT22;11524;50.846;4.326;2023-02-24T18:05:31;17.80;55.90
22714;DHT22;11524;50.846;4.326;2023-02-24T18:07:57;17.80;55.80
22714;DHT22;11524;50.846;4.326;2023-02-24T18:10:23;17.80;56.10
22714;DHT22;11524;50.846;4.326;2023-02-24T18:12:49;17.80;56.00